Time;durP1;ratioP1;P1;durP2;ratioP2;P2;SDS_P1;SDS_P2;PMS_P1;PMS_P2;Temp;Humidity;BMP_temperature;BMP_pressure;BME280_temperature;BME280_humidity;BME280_pressure;Samples;Min_cycle;Max_cycle;Signal;HPM_P1;HPM_P2
2023/04/21 00:02:02;;;;;;;;;;;13.40;74.00;;;;;;5070236;28;20006;-92
2023/04/21 00:04:28;;;;;;;;;;;13.40;74.30;;;;;;5053703;28;20169;-91
2023/04/21 00:06:55;;;;;;;;;;;13.40;74.40;;;;;;5070808;28;20240;-92
2023/04/21 00:09:23;;;;;;;;;;;13.40;74.30;;;;;;5070592;28;19909;-92
2023/04/21 00:11:52;;;;;;;;;;;13.40;74.50;;;;;;5039311;28;19935;-91
2023/04/21 00:14:20;;;;;;;;;;;13.40;74.30;;;;;;5072231;28;19908;-92
2023/04/21 00:16:51;;;;;;;;;;;13.40;74.30;;;;;;5076156;28;20198;-92
2023/04/21 00:19:19;;;;;;;;;;;13.40;74.30;;;;;;5076130;28;19935;-92
2023/04/21 00:21:48;;;;;;;;;;;13.40;74.20;;;;;;5076280;28;19913;-92
2023/04/21 00:24:14;;;;;;;;;;;13.40;74.20;;;;;;5074919;28;19932;-92
2023/04/21 00:26:39;;;;;;;;;;;13.40;74.30;;;;;;5074963;28;20186;-92
2023/04/21 00:29:05;;;;;;;;;;;13.40;74.20;;;;;;5074218;28;19948;-92
2023/04/21 00:31:33;;;;;;;;;;;13.40;74.20;;;;;;5073812;28;19909;-92
2023/04/21 00:33:59;;;;;;;;;;;13.40;74.40;;;;;;5074107;28;19936;-91
2023/04/21 00:36:27;;;;;;;;;;;13.40;74.50;;;;;;5073666;28;20260;-92
2023/04/21 00:38:55;;;;;;;;;;;13.40;74.50;;;;;;5074029;28;19939;-91
2023/04/21 00:41:26;;;;;;;;;;;13.40;74.60;;;;;;5073908;28;19909;-91
2023/04/21 00:43:59;;;;;;;;;;;13.40;74.70;;;;;;5038696;28;19909;-91
2023/04/21 00:46:24;;;;;;;;;;;13.40;74.70;;;;;;5041440;28;19909;-91
2023/04/21 00:48:53;;;;;;;;;;;13.40;74.70;;;;;;5074473;28;20415;-90
2023/04/21 00:51:22;;;;;;;;;;;13.40;74.90;;;;;;5073910;28;20304;-91
2023/04/21 00:53:51;;;;;;;;;;;13.40;74.90;;;;;;5074355;28;20171;-91
2023/04/21 00:56:17;;;;;;;;;;;13.40;75.00;;;;;;5041334;28;20014;-91
2023/04/21 00:58:46;;;;;;;;;;;13.40;75.00;;;;;;5074160;28;19909;-90
2023/04/21 01:01:12;;;;;;;;;;;13.40;75.00;;;;;;5040931;28;19952;-91
2023/04/21 01:03:38;;;;;;;;;;;13.40;74.90;;;;;;5073625;28;19956;-91
2023/04/21 01:06:04;;;;;;;;;;;13.30;75.00;;;;;;5075520;28;19927;-91
2023/04/21 01:08:30;;;;;;;;;;;13.40;75.00;;;;;;5042335;28;20297;-91
2023/04/21 01:10:55;;;;;;;;;;;13.30;75.00;;;;;;5077889;28;20230;-91
2023/04/21 01:13:24;;;;;;;;;;;13.30;75.00;;;;;;5044780;28;19999;-90
2023/04/21 01:15:49;;;;;;;;;;;13.30;75.10;;;;;;5076646;28;20240;-91
2023/04/21 01:18:17;;;;;;;;;;;13.30;75.20;;;;;;5077329;28;19913;-91
2023/04/21 01:20:45;;;;;;;;;;;13.30;75.10;;;;;;5076030;28;20251;-91
2023/04/21 01:23:14;;;;;;;;;;;13.30;75.20;;;;;;5075108;28;20206;-91
2023/04/21 01:25:42;;;;;;;;;;;13.30;75.30;;;;;;5075989;28;19948;-91
2023/04/21 01:28:08;;;;;;;;;;;13.30;75.40;;;;;;5073678;28;19908;-91
2023/04/21 01:30:33;;;;;;;;;;;13.30;75.50;;;;;;5076148;28;19909;-92
2023/04/21 01:32:59;;;;;;;;;;;13.30;75.60;;;;;;5074681;28;19913;-92
2023/04/21 01:35:25;;;;;;;;;;;13.30;75.60;;;;;;5074926;28;19921;-92
2023/04/21 01:37:50;;;;;;;;;;;13.30;75.90;;;;;;5072674;28;20010;-91
2023/04/21 01:40:16;;;;;;;;;;;13.30;75.90;;;;;;5075217;28;19935;-91
2023/04/21 01:42:44;;;;;;;;;;;13.30;76.10;;;;;;5073437;28;19920;-92
2023/04/21 01:45:11;;;;;;;;;;;13.30;76.00;;;;;;5042189;28;19909;-91
2023/04/21 01:47:40;;;;;;;;;;;13.30;76.00;;;;;;5042248;28;19909;-91
2023/04/21 01:50:09;;;;;;;;;;;13.30;76.30;;;;;;5076492;28;19909;-91
2023/04/21 01:52:35;;;;;;;;;;;13.30;76.10;;;;;;5073556;28;19909;-91
2023/04/21 01:55:01;;;;;;;;;;;13.30;76.00;;;;;;5071650;28;19931;-91
2023/04/21 01:57:26;;;;;;;;;;;13.30;75.90;;;;;;5038647;28;19916;-91
2023/04/21 01:59:52;;;;;;;;;;;13.30;75.90;;;;;;5071504;28;19908;-91
2023/04/21 02:02:17;;;;;;;;;;;13.30;75.90;;;;;;5072572;28;19912;-91
2023/04/21 02:04:43;;;;;;;;;;;13.30;76.10;;;;;;5072852;28;19983;-91
2023/04/21 02:07:09;;;;;;;;;;;13.30;76.10;;;;;;5072713;28;19948;-91
2023/04/21 02:09:38;;;;;;;;;;;13.30;76.20;;;;;;5073050;28;19917;-91
2023/04/21 02:12:06;;;;;;;;;;;13.30;76.20;;;;;;5073218;28;19952;-91
2023/04/21 02:14:32;;;;;;;;;;;13.30;76.30;;;;;;5073852;28;19916;-91
2023/04/21 02:16:58;;;;;;;;;;;13.30;76.40;;;;;;5072681;28;19908;-92
2023/04/21 02:19:23;;;;;;;;;;;13.20;76.30;;;;;;5073093;28;19905;-92
2023/04/21 02:21:49;;;;;;;;;;;13.20;76.50;;;;;;5073415;28;19917;-91
2023/04/21 02:24:14;;;;;;;;;;;13.20;76.50;;;;;;5072543;28;19909;-92
2023/04/21 02:26:42;;;;;;;;;;;13.20;76.70;;;;;;5073364;28;19909;-92
2023/04/21 02:29:11;;;;;;;;;;;13.20;76.90;;;;;;5039597;28;19908;-91
2023/04/21 02:31:40;;;;;;;;;;;13.20;77.00;;;;;;5073634;28;19908;-91
2023/04/21 02:34:06;;;;;;;;;;;13.20;77.10;;;;;;5073610;28;19916;-91
2023/04/21 02:36:34;;;;;;;;;;;13.20;77.20;;;;;;5040185;28;19921;-92
2023/04/21 02:39:03;;;;;;;;;;;13.20;77.20;;;;;;5072880;28;19909;-91
2023/04/21 02:41:31;;;;;;;;;;;13.20;77.50;;;;;;5073858;28;19916;-91
2023/04/21 02:43:57;;;;;;;;;;;13.20;77.50;;;;;;5075269;28;19920;-91
2023/04/21 02:46:23;;;;;;;;;;;13.20;77.40;;;;;;5075709;28;19908;-92
2023/04/21 02:48:48;;;;;;;;;;;13.20;77.50;;;;;;5075055;28;19912;-91
2023/04/21 02:51:14;;;;;;;;;;;13.20;77.50;;;;;;5073638;28;20153;-92
2023/04/21 02:53:40;;;;;;;;;;;13.20;77.40;;;;;;5073819;28;19909;-91
2023/04/21 02:56:09;;;;;;;;;;;13.20;77.40;;;;;;5040041;28;19919;-91
2023/04/21 02:58:38;;;;;;;;;;;13.20;77.20;;;;;;5039499;28;19908;-91
2023/04/21 03:01:07;;;;;;;;;;;13.20;77.20;;;;;;5039302;28;19916;-91
2023/04/21 03:03:40;;;;;;;;;;;13.20;77.20;;;;;;5041775;28;19940;-91
2023/04/21 03:06:08;;;;;;;;;;;13.20;77.20;;;;;;5075794;28;19912;-91
2023/04/21 03:08:37;;;;;;;;;;;13.20;77.70;;;;;;5077450;28;19940;-91
2023/04/21 03:11:02;;;;;;;;;;;13.20;77.10;;;;;;5077116;28;20301;-92
2023/04/21 03:13:31;;;;;;;;;;;13.20;77.00;;;;;;5076899;28;19909;-91
2023/04/21 03:15:56;;;;;;;;;;;13.20;77.00;;;;;;5075038;28;19920;-91
2023/04/21 03:18:25;;;;;;;;;;;13.20;76.90;;;;;;5074155;28;19909;-91
2023/04/21 03:20:51;;;;;;;;;;;13.20;76.90;;;;;;5073105;28;19913;-91
2023/04/21 03:23:17;;;;;;;;;;;13.20;76.90;;;;;;5074170;28;19913;-91
2023/04/21 03:25:43;;;;;;;;;;;13.20;77.00;;;;;;5073108;28;20000;-91
2023/04/21 03:28:08;;;;;;;;;;;13.20;77.00;;;;;;5073655;28;20267;-90
2023/04/21 03:30:34;;;;;;;;;;;13.20;77.10;;;;;;5073281;28;20012;-91
2023/04/21 03:33:00;;;;;;;;;;;13.20;76.90;;;;;;5074825;28;20263;-91
2023/04/21 03:38:02;;;;;;;;;;;13.20;77.00;;;;;;5152743;27;20190;-90
2023/04/21 03:40:28;;;;;;;;;;;13.20;77.00;;;;;;5136240;28;19955;-90
2023/04/21 03:42:54;;;;;;;;;;;13.20;77.10;;;;;;5119162;28;19959;-90
2023/04/21 03:45:21;;;;;;;;;;;13.20;77.00;;;;;;5118018;28;19908;-90
2023/04/21 03:47:47;;;;;;;;;;;13.20;77.10;;;;;;5133398;28;19912;-89
2023/04/21 03:50:13;;;;;;;;;;;13.20;77.10;;;;;;5117962;28;19912;-90
2023/04/21 03:52:39;;;;;;;;;;;13.20;77.10;;;;;;5118055;28;19908;-90
2023/04/21 03:55:07;;;;;;;;;;;13.20;77.10;;;;;;5119067;28;19912;-91
2023/04/21 03:57:33;;;;;;;;;;;13.20;77.10;;;;;;5120259;28;20296;-90
2023/04/21 03:59:58;;;;;;;;;;;13.20;77.00;;;;;;5125873;28;19908;-90
2023/04/21 04:02:24;;;;;;;;;;;13.20;77.00;;;;;;5119492;28;19908;-90
2023/04/21 04:04:50;;;;;;;;;;;13.20;77.10;;;;;;5121486;28;19908;-90
2023/04/21 04:07:16;;;;;;;;;;;13.20;77.10;;;;;;5119594;28;19958;-90
2023/04/21 04:09:42;;;;;;;;;;;13.20;77.20;;;;;;5152799;27;19908;-90
2023/04/21 04:12:08;;;;;;;;;;;13.20;77.10;;;;;;5116640;28;19908;-91
2023/04/21 04:14:35;;;;;;;;;;;13.20;77.20;;;;;;5118352;28;19915;-90
2023/04/21 04:17:00;;;;;;;;;;;13.20;77.90;;;;;;5118248;28;19916;-90
2023/04/21 04:19:32;;;;;;;;;;;13.20;77.20;;;;;;5119642;28;20269;-90
2023/04/21 04:21:58;;;;;;;;;;;13.20;77.30;;;;;;5117739;28;19909;-90
2023/04/21 04:24:25;;;;;;;;;;;13.20;77.30;;;;;;5116526;28;19975;-90
2023/04/21 04:26:52;;;;;;;;;;;13.20;77.20;;;;;;5120250;28;19968;-90
2023/04/21 04:29:18;;;;;;;;;;;13.20;77.20;;;;;;5121269;28;20222;-90
2023/04/21 04:31:44;;;;;;;;;;;13.20;77.20;;;;;;5121127;28;19953;-91
2023/04/21 04:34:14;;;;;;;;;;;13.20;77.30;;;;;;5119559;28;19916;-90
2023/04/21 04:36:41;;;;;;;;;;;13.20;77.50;;;;;;5116445;28;19941;-91
2023/04/21 04:39:07;;;;;;;;;;;13.20;77.40;;;;;;5117509;28;19912;-90
2023/04/21 04:41:33;;;;;;;;;;;13.20;77.60;;;;;;5115634;28;19920;-90
2023/04/21 04:43:59;;;;;;;;;;;13.20;77.50;;;;;;5116930;28;20347;-90
2023/04/21 04:46:27;;;;;;;;;;;13.10;77.70;;;;;;5116936;28;20009;-90
2023/04/21 04:48:52;;;;;;;;;;;13.20;77.70;;;;;;5106830;28;19974;-90
2023/04/21 04:51:18;;;;;;;;;;;13.20;78.00;;;;;;5103354;28;19908;-91
2023/04/21 04:53:44;;;;;;;;;;;13.20;78.00;;;;;;5103103;28;19926;-90
2023/04/21 04:56:09;;;;;;;;;;;13.20;78.20;;;;;;5104668;28;19923;-91
2023/04/21 04:58:35;;;;;;;;;;;13.20;78.10;;;;;;5103317;28;19945;-91
2023/04/21 05:01:13;;;;;;;;;;;13.20;78.10;;;;;;5103427;28;20328;-91
2023/04/21 05:03:40;;;;;;;;;;;13.10;78.10;;;;;;5101560;28;19908;-92
2023/04/21 05:06:06;;;;;;;;;;;13.20;78.10;;;;;;5101436;28;20278;-91
2023/04/21 05:08:31;;;;;;;;;;;13.20;78.10;;;;;;5102155;28;19912;-92
2023/04/21 05:10:57;;;;;;;;;;;13.20;78.20;;;;;;5102172;28;19908;-92
2023/04/21 05:13:23;;;;;;;;;;;13.20;78.20;;;;;;5099668;28;20273;-92
2023/04/21 05:15:49;;;;;;;;;;;13.20;78.10;;;;;;5100533;28;20106;-92
2023/04/21 05:18:14;;;;;;;;;;;13.20;77.90;;;;;;5100360;28;19908;-92
2023/04/21 05:20:40;;;;;;;;;;;13.20;77.90;;;;;;5102186;28;19908;-92
2023/04/21 05:23:06;;;;;;;;;;;13.20;77.80;;;;;;5099003;28;19942;-92
2023/04/21 05:25:32;;;;;;;;;;;13.30;77.80;;;;;;5097281;28;19907;-92
2023/04/21 05:27:57;;;;;;;;;;;13.30;77.80;;;;;;5099166;28;19971;-92
2023/04/21 05:30:23;;;;;;;;;;;13.30;77.80;;;;;;5098142;28;19908;-92
2023/04/21 05:32:49;;;;;;;;;;;13.30;77.70;;;;;;5098656;28;19912;-92
2023/04/21 05:35:15;;;;;;;;;;;13.30;77.80;;;;;;5095958;28;20442;-92
2023/04/21 05:37:40;;;;;;;;;;;13.30;77.50;;;;;;5095015;28;19950;-92
2023/04/21 05:40:06;;;;;;;;;;;13.30;77.40;;;;;;5094333;28;19966;-92
2023/04/21 05:42:32;;;;;;;;;;;13.30;77.40;;;;;;5093911;28;19934;-92
2023/04/21 05:44:57;;;;;;;;;;;13.40;77.10;;;;;;5094411;28;20069;-92
2023/04/21 05:47:23;;;;;;;;;;;13.40;77.00;;;;;;5093094;28;20201;-92
2023/04/21 05:49:52;;;;;;;;;;;13.40;76.90;;;;;;5092332;28;19908;-91
2023/04/21 05:52:18;;;;;;;;;;;13.40;76.60;;;;;;5096207;28;19908;-92
2023/04/21 05:54:44;;;;;;;;;;;13.40;76.40;;;;;;5095085;28;20129;-91
2023/04/21 05:57:09;;;;;;;;;;;13.50;76.30;;;;;;5094536;28;19912;-91
2023/04/21 05:59:36;;;;;;;;;;;13.50;76.00;;;;;;5091156;28;19919;-92
2023/04/21 06:02:02;;;;;;;;;;;13.50;75.80;;;;;;5094628;28;20149;-92
2023/04/21 06:04:28;;;;;;;;;;;13.50;75.70;;;;;;5094838;28;19916;-91
2023/04/21 06:06:53;;;;;;;;;;;13.50;75.70;;;;;;5094770;28;19938;-91
2023/04/21 06:09:20;;;;;;;;;;;13.50;76.50;;;;;;5095345;28;19963;-91
2023/04/21 06:11:45;;;;;;;;;;;13.50;77.10;;;;;;5096719;28;20297;-91
2023/04/21 06:14:11;;;;;;;;;;;13.60;77.60;;;;;;5095256;28;20089;-92
2023/04/21 06:16:36;;;;;;;;;;;13.60;77.50;;;;;;5094758;28;19908;-91
2023/04/21 06:19:02;;;;;;;;;;;13.70;77.20;;;;;;5095858;28;19908;-92
2023/04/21 06:21:28;;;;;;;;;;;13.80;77.00;;;;;;5096137;28;19908;-92
2023/04/21 06:23:53;;;;;;;;;;;13.90;77.40;;;;;;5096520;28;20195;-92
2023/04/21 06:26:19;;;;;;;;;;;13.90;76.60;;;;;;5095661;28;19927;-91
2023/04/21 06:28:45;;;;;;;;;;;14.10;75.90;;;;;;5095465;28;19999;-91
2023/04/21 06:31:14;;;;;;;;;;;14.20;75.40;;;;;;5096018;28;19908;-91
2023/04/21 06:33:39;;;;;;;;;;;14.20;75.30;;;;;;5095993;28;19916;-92
2023/04/21 06:36:05;;;;;;;;;;;14.10;75.50;;;;;;5096436;28;19912;-92
2023/04/21 06:38:31;;;;;;;;;;;14.10;76.00;;;;;;5094970;28;19931;-92
2023/04/21 06:40:56;;;;;;;;;;;14.10;76.60;;;;;;5094195;28;19912;-92
2023/04/21 06:43:22;;;;;;;;;;;14.10;76.80;;;;;;5096177;28;19908;-90
2023/04/21 06:45:47;;;;;;;;;;;14.00;77.10;;;;;;5095134;28;19916;-91
2023/04/21 06:48:13;;;;;;;;;;;14.00;77.70;;;;;;5097389;28;20238;-91
2023/04/21 06:50:38;;;;;;;;;;;14.00;78.00;;;;;;5098273;28;19908;-91
2023/04/21 06:53:04;;;;;;;;;;;14.00;78.20;;;;;;5096101;28;20042;-92
2023/04/21 06:55:29;;;;;;;;;;;14.00;78.30;;;;;;5096261;28;19919;-92
2023/04/21 06:57:55;;;;;;;;;;;14.00;78.40;;;;;;5098478;28;20034;-92
2023/04/21 07:00:21;;;;;;;;;;;14.00;78.40;;;;;;5096570;28;19912;-92
2023/04/21 07:02:47;;;;;;;;;;;14.10;78.50;;;;;;5100572;28;19908;-91
2023/04/21 07:05:12;;;;;;;;;;;14.10;78.50;;;;;;5100623;28;20029;-92
2023/04/21 07:07:38;;;;;;;;;;;14.10;78.60;;;;;;5100274;28;19923;-91
2023/04/21 07:10:04;;;;;;;;;;;14.10;78.50;;;;;;5116371;28;19928;-91
2023/04/21 07:12:29;;;;;;;;;;;14.10;79.10;;;;;;5114664;28;19909;-92
2023/04/21 07:14:55;;;;;;;;;;;14.10;78.40;;;;;;5116480;28;20002;-92
2023/04/21 07:17:21;;;;;;;;;;;14.20;78.30;;;;;;5113555;28;19948;-92
2023/04/21 07:19:46;;;;;;;;;;;14.20;78.20;;;;;;5113221;28;19939;-91
2023/04/21 07:22:12;;;;;;;;;;;14.20;78.10;;;;;;5119084;28;20059;-91
2023/04/21 07:24:38;;;;;;;;;;;14.30;77.80;;;;;;5110922;28;19920;-91
2023/04/21 07:27:05;;;;;;;;;;;14.30;77.70;;;;;;5109648;28;19927;-91
2023/04/21 07:29:30;;;;;;;;;;;14.40;77.40;;;;;;5111370;28;19963;-91
2023/04/21 07:31:57;;;;;;;;;;;14.40;77.10;;;;;;5108492;28;19909;-92
2023/04/21 07:34:23;;;;;;;;;;;14.50;77.00;;;;;;5109635;28;19908;-93
2023/04/21 07:36:49;;;;;;;;;;;14.50;76.80;;;;;;5106548;28;19926;-91
2023/04/21 07:39:14;;;;;;;;;;;14.60;76.50;;;;;;5108431;28;20032;-92
2023/04/21 07:41:40;;;;;;;;;;;14.60;76.30;;;;;;5107021;28;19948;-91
2023/04/21 07:44:05;;;;;;;;;;;14.70;76.00;;;;;;5106663;28;20155;-91
2023/04/21 07:46:31;;;;;;;;;;;14.70;76.10;;;;;;5106176;28;19913;-92
2023/04/21 07:48:58;;;;;;;;;;;14.70;76.00;;;;;;5107699;28;20011;-91
2023/04/21 07:51:23;;;;;;;;;;;14.70;76.00;;;;;;5106397;28;19916;-91
2023/04/21 07:53:49;;;;;;;;;;;14.70;76.50;;;;;;5106589;28;19909;-92
2023/04/21 07:56:15;;;;;;;;;;;14.70;77.10;;;;;;5105127;28;19908;-91
2023/04/21 07:58:41;;;;;;;;;;;14.70;77.30;;;;;;5105841;28;19913;-91
2023/04/21 08:01:06;;;;;;;;;;;14.60;78.00;;;;;;5104642;28;20296;-91
2023/04/21 08:03:32;;;;;;;;;;;14.60;78.60;;;;;;5103514;28;19909;-91
2023/04/21 08:05:57;;;;;;;;;;;14.60;80.00;;;;;;5103615;28;19920;-92
2023/04/21 08:08:24;;;;;;;;;;;14.60;80.30;;;;;;5104786;28;19913;-92
2023/04/21 08:10:50;;;;;;;;;;;14.60;81.20;;;;;;5103651;28;20262;-91
2023/04/21 08:13:15;;;;;;;;;;;14.60;80.90;;;;;;5105729;28;19935;-92
2023/04/21 08:15:41;;;;;;;;;;;14.60;81.80;;;;;;5104849;28;19909;-91
2023/04/21 08:18:07;;;;;;;;;;;14.60;82.70;;;;;;5104200;28;19915;-91
2023/04/21 08:20:33;;;;;;;;;;;14.60;83.10;;;;;;5103622;28;19908;-91
2023/04/21 08:22:58;;;;;;;;;;;14.70;83.60;;;;;;5103198;28;19958;-91
2023/04/21 08:25:24;;;;;;;;;;;14.70;83.90;;;;;;5107156;28;20324;-91
2023/04/21 08:27:50;;;;;;;;;;;14.70;83.90;;;;;;5105420;28;19920;-91
2023/04/21 08:30:16;;;;;;;;;;;14.70;84.10;;;;;;5106490;28;19920;-91
2023/04/21 08:32:43;;;;;;;;;;;14.70;84.50;;;;;;5107444;28;20186;-91
2023/04/21 08:35:09;;;;;;;;;;;14.70;84.40;;;;;;5107659;28;19908;-92
2023/04/21 08:37:35;;;;;;;;;;;14.70;84.50;;;;;;5105295;28;20015;-91
2023/04/21 08:40:01;;;;;;;;;;;14.70;84.40;;;;;;5105508;28;19917;-91
2023/04/21 08:42:26;;;;;;;;;;;14.70;84.40;;;;;;5106886;28;19909;-91
2023/04/21 08:44:52;;;;;;;;;;;14.80;84.50;;;;;;5108511;28;19917;-92
2023/04/21 08:47:19;;;;;;;;;;;14.80;84.50;;;;;;5108935;28;19913;-90
2023/04/21 08:49:46;;;;;;;;;;;14.70;84.30;;;;;;5106329;28;19920;-91
2023/04/21 08:52:12;;;;;;;;;;;14.80;84.40;;;;;;5106429;28;19908;-92
2023/04/21 08:54:39;;;;;;;;;;;14.80;84.60;;;;;;5104602;28;20198;-92
2023/04/21 08:57:05;;;;;;;;;;;14.80;84.90;;;;;;5104610;28;20173;-92
2023/04/21 08:59:31;;;;;;;;;;;14.80;84.60;;;;;;5102249;28;20004;-92
2023/04/21 09:02:10;;;;;;;;;;;14.80;84.50;;;;;;5102219;28;19909;-92
2023/04/21 09:04:39;;;;;;;;;;;14.80;84.60;;;;;;5103014;28;19908;-92
2023/04/21 09:07:05;;;;;;;;;;;14.90;84.70;;;;;;5104025;28;19916;-91
2023/04/21 09:09:31;;;;;;;;;;;14.90;84.50;;;;;;5106340;28;20037;-92
2023/04/21 09:11:57;;;;;;;;;;;14.90;84.60;;;;;;5104520;28;19973;-92
2023/04/21 09:14:33;;;;;;;;;;;14.90;84.60;;;;;;5105446;28;20002;-91
2023/04/21 09:16:59;;;;;;;;;;;14.90;84.60;;;;;;5103535;28;19912;-92
2023/04/21 09:19:26;;;;;;;;;;;15.00;84.80;;;;;;5103342;28;19916;-91
2023/04/21 09:21:51;;;;;;;;;;;14.90;84.70;;;;;;5105302;28;19920;-92
2023/04/21 09:24:18;;;;;;;;;;;15.00;84.80;;;;;;5104883;28;20449;-92
2023/04/21 09:26:43;;;;;;;;;;;15.00;85.00;;;;;;5106317;28;19939;-91
2023/04/21 09:29:09;;;;;;;;;;;15.00;85.10;;;;;;5104381;28;19916;-92
2023/04/21 09:31:35;;;;;;;;;;;15.00;84.90;;;;;;5105011;28;20023;-92
2023/04/21 09:34:00;;;;;;;;;;;15.00;85.10;;;;;;5103570;28;20019;-92
2023/04/21 09:36:27;;;;;;;;;;;15.00;84.80;;;;;;5104249;28;19969;-91
2023/04/21 09:38:52;;;;;;;;;;;15.00;85.10;;;;;;5106965;28;20136;-92
2023/04/21 09:41:18;;;;;;;;;;;15.00;85.30;;;;;;5070891;28;20228;-92
2023/04/21 09:43:44;;;;;;;;;;;15.00;85.40;;;;;;5102979;28;20394;-92
2023/04/21 09:46:10;;;;;;;;;;;15.00;85.90;;;;;;5102832;28;19923;-92
2023/04/21 09:48:37;;;;;;;;;;;15.00;85.60;;;;;;5104469;28;19908;-91
2023/04/21 09:51:04;;;;;;;;;;;15.00;85.90;;;;;;5102548;28;19961;-91
2023/04/21 09:53:33;;;;;;;;;;;15.10;86.00;;;;;;5105110;28;19912;-91
2023/04/21 09:55:59;;;;;;;;;;;15.10;86.00;;;;;;5070214;28;19908;-92
2023/04/21 09:58:26;;;;;;;;;;;15.10;86.00;;;;;;5103943;28;19919;-91
2023/04/21 10:00:52;;;;;;;;;;;15.10;86.10;;;;;;5104546;28;20108;-93
2023/04/21 10:03:19;;;;;;;;;;;15.00;86.00;;;;;;5104757;28;19909;-92
2023/04/21 10:05:45;;;;;;;;;;;15.10;86.40;;;;;;5106238;28;20101;-92
2023/04/21 10:08:11;;;;;;;;;;;15.10;86.50;;;;;;5106288;28;19913;-91
2023/04/21 10:10:37;;;;;;;;;;;15.10;86.40;;;;;;5105857;28;20150;-91
2023/04/21 10:13:03;;;;;;;;;;;15.10;86.80;;;;;;5105069;28;19908;-91
2023/04/21 10:15:30;;;;;;;;;;;15.10;87.10;;;;;;5103824;28;20267;-91
2023/04/21 10:18:30;;;;;;;;;;;15.10;87.10;;;;;;5103196;28;19908;-91
2023/04/21 10:20:57;;;;;;;;;;;15.20;87.30;;;;;;5056566;28;19981;-92
2023/04/21 10:23:29;;;;;;;;;;;15.20;87.60;;;;;;5100184;28;20001;-91
2023/04/21 10:26:00;;;;;;;;;;;15.20;87.60;;;;;;5064515;28;19923;-92
2023/04/21 10:28:46;;;;;;;;;;;15.20;87.40;;;;;;5098975;28;20042;-91
2023/04/21 10:31:15;;;;;;;;;;;15.20;87.30;;;;;;5101703;28;19908;-91
2023/04/21 10:33:40;;;;;;;;;;;15.20;87.80;;;;;;5071024;28;20035;-91
2023/04/21 10:36:10;;;;;;;;;;;15.20;87.90;;;;;;5103818;28;19924;-91
2023/04/21 10:38:40;;;;;;;;;;;15.20;88.00;;;;;;5101866;28;19915;-91
2023/04/21 10:41:24;;;;;;;;;;;15.20;88.10;;;;;;5103687;28;19959;-91
2023/04/21 10:43:50;;;;;;;;;;;15.20;88.20;;;;;;5073411;28;20090;-90
2023/04/21 10:46:34;;;;;;;;;;;15.20;88.60;;;;;;5112060;28;19951;-91
2023/04/21 10:49:23;;;;;;;;;;;15.20;88.50;;;;;;5074810;28;19952;-91
2023/04/21 10:52:04;;;;;;;;;;;15.30;88.50;;;;;;5095877;28;19965;-91
2023/04/21 10:54:41;;;;;;;;;;;15.30;88.20;;;;;;5068617;28;19985;-91
2023/04/21 10:57:10;;;;;;;;;;;15.30;88.20;;;;;;5105835;28;19908;-91
2023/04/21 10:59:35;;;;;;;;;;;15.40;88.10;;;;;;5102735;28;19909;-91
2023/04/21 11:02:02;;;;;;;;;;;15.50;87.90;;;;;;5103314;28;19916;-91
2023/04/21 11:04:27;;;;;;;;;;;15.60;87.40;;;;;;5103869;28;19908;-91
2023/04/21 11:07:12;;;;;;;;;;;15.60;87.30;;;;;;5103001;28;19919;-91
2023/04/21 11:09:38;;;;;;;;;;;15.60;87.40;;;;;;5066836;28;20396;-90
2023/04/21 11:12:11;;;;;;;;;;;15.70;87.20;;;;;;5103214;28;19936;-90
2023/04/21 11:14:38;;;;;;;;;;;15.80;86.10;;;;;;5103953;28;19909;-91
2023/04/21 11:17:04;;;;;;;;;;;15.90;86.50;;;;;;5102354;28;19909;-91
2023/04/21 11:19:33;;;;;;;;;;;15.90;85.50;;;;;;5067247;28;19943;-92
2023/04/21 11:21:59;;;;;;;;;;;16.00;84.40;;;;;;5102270;28;19916;-91
2023/04/21 11:24:25;;;;;;;;;;;16.10;84.50;;;;;;5105815;28;19914;-91
2023/04/21 11:26:50;;;;;;;;;;;16.20;84.60;;;;;;5104885;28;20272;-91
2023/04/21 11:29:16;;;;;;;;;;;16.30;83.80;;;;;;5103822;28;19909;-92
2023/04/21 11:31:44;;;;;;;;;;;16.30;82.50;;;;;;5100787;28;20072;-91
2023/04/21 11:34:10;;;;;;;;;;;16.30;82.40;;;;;;5101219;28;19938;-91
2023/04/21 11:36:37;;;;;;;;;;;16.30;83.80;;;;;;5103083;28;19976;-91
2023/04/21 11:39:09;;;;;;;;;;;16.30;84.30;;;;;;5102997;28;19974;-91
2023/04/21 11:41:38;;;;;;;;;;;16.30;84.40;;;;;;5103122;28;19913;-92
2023/04/21 11:44:04;;;;;;;;;;;16.20;84.10;;;;;;5102607;28;20110;-91
2023/04/21 11:46:32;;;;;;;;;;;16.20;84.20;;;;;;5102319;28;19913;-91
2023/04/21 11:49:00;;;;;;;;;;;16.20;85.70;;;;;;5102557;28;19917;-91
2023/04/21 11:51:26;;;;;;;;;;;16.30;85.30;;;;;;5066960;28;20259;-91
2023/04/21 11:53:52;;;;;;;;;;;16.30;84.40;;;;;;5102110;28;19920;-91
2023/04/21 11:56:20;;;;;;;;;;;16.40;83.40;;;;;;5102470;28;19909;-92
2023/04/21 11:58:46;;;;;;;;;;;16.40;83.80;;;;;;5104111;28;20094;-91
2023/04/21 12:01:14;;;;;;;;;;;16.40;84.50;;;;;;5106921;28;19985;-92
2023/04/21 12:03:39;;;;;;;;;;;16.40;84.60;;;;;;5108524;28;20011;-91
2023/04/21 12:06:06;;;;;;;;;;;16.40;84.40;;;;;;5106684;28;19917;-91
2023/04/21 12:08:31;;;;;;;;;;;16.50;84.50;;;;;;5106306;28;19908;-92
2023/04/21 12:11:00;;;;;;;;;;;16.50;84.60;;;;;;5105891;28;20306;-91
2023/04/21 12:13:30;;;;;;;;;;;16.50;83.80;;;;;;5105888;28;19919;-92
2023/04/21 12:15:56;;;;;;;;;;;16.50;83.70;;;;;;5107336;28;19919;-91
2023/04/21 12:18:25;;;;;;;;;;;16.50;83.80;;;;;;5106671;28;19909;-91
2023/04/21 12:20:52;;;;;;;;;;;16.50;83.70;;;;;;5106201;28;19916;-91
2023/04/21 12:23:17;;;;;;;;;;;16.60;83.50;;;;;;5107338;28;20065;-91
2023/04/21 12:25:45;;;;;;;;;;;16.60;82.90;;;;;;5103203;28;19908;-91
2023/04/21 12:28:14;;;;;;;;;;;16.70;82.60;;;;;;5104819;28;20335;-90
2023/04/21 12:30:40;;;;;;;;;;;16.80;83.10;;;;;;5101538;28;19908;-91
2023/04/21 12:33:05;;;;;;;;;;;16.90;82.20;;;;;;5108834;27;19912;-91
2023/04/21 12:35:32;;;;;;;;;;;16.90;81.30;;;;;;5093354;28;20026;-91
2023/04/21 12:37:57;;;;;;;;;;;17.00;81.10;;;;;;5091755;28;19923;-91
2023/04/21 12:40:23;;;;;;;;;;;17.00;81.20;;;;;;5091420;28;19908;-91
2023/04/21 12:42:48;;;;;;;;;;;17.00;81.30;;;;;;5094613;28;19916;-91
2023/04/21 12:45:14;;;;;;;;;;;17.00;81.20;;;;;;5093434;28;19909;-91
2023/04/21 12:47:41;;;;;;;;;;;17.00;81.30;;;;;;5093765;28;19912;-91
2023/04/21 12:50:06;;;;;;;;;;;17.10;81.30;;;;;;5092300;28;20153;-91
2023/04/21 12:52:32;;;;;;;;;;;17.10;81.60;;;;;;5090998;28;20320;-91
2023/04/21 12:54:57;;;;;;;;;;;17.10;81.10;;;;;;5093403;28;19980;-91
2023/04/21 12:57:23;;;;;;;;;;;17.10;81.30;;;;;;5090161;28;19908;-91
2023/04/21 12:59:49;;;;;;;;;;;17.10;82.10;;;;;;5088674;28;19908;-91
2023/04/21 13:02:15;;;;;;;;;;;17.20;81.50;;;;;;5090035;28;19919;-91
2023/04/21 13:04:41;;;;;;;;;;;17.20;81.30;;;;;;5090533;28;19908;-91
2023/04/21 13:07:07;;;;;;;;;;;17.20;81.70;;;;;;5090034;28;20014;-92
2023/04/21 13:09:32;;;;;;;;;;;17.20;81.90;;;;;;5089238;28;19919;-91
2023/04/21 13:11:58;;;;;;;;;;;17.20;81.40;;;;;;5092083;28;19908;-91
2023/04/21 13:14:24;;;;;;;;;;;17.20;81.60;;;;;;5091301;28;19955;-91
2023/04/21 13:16:50;;;;;;;;;;;17.20;81.50;;;;;;5089484;28;20005;-91
2023/04/21 13:19:15;;;;;;;;;;;17.20;82.00;;;;;;5090284;28;20178;-91
2023/04/21 13:21:41;;;;;;;;;;;17.20;83.70;;;;;;5091377;28;20178;-91
2023/04/21 13:24:06;;;;;;;;;;;17.20;83.90;;;;;;5093233;28;20061;-91
2023/04/21 13:26:33;;;;;;;;;;;17.20;83.10;;;;;;5093540;28;19912;-91
2023/04/21 13:29:00;;;;;;;;;;;17.20;83.00;;;;;;5094225;28;19961;-91
2023/04/21 13:31:25;;;;;;;;;;;17.20;82.70;;;;;;5091092;28;20266;-91
2023/04/21 13:33:51;;;;;;;;;;;17.20;82.80;;;;;;5088497;28;19915;-92
2023/04/21 13:36:17;;;;;;;;;;;17.20;83.10;;;;;;5088001;28;19916;-91
2023/04/21 13:38:43;;;;;;;;;;;17.30;83.30;;;;;;5089120;28;19919;-91
2023/04/21 13:41:08;;;;;;;;;;;17.30;83.10;;;;;;5085912;28;19919;-91
2023/04/21 13:43:34;;;;;;;;;;;17.30;83.30;;;;;;5086936;28;19968;-90
2023/04/21 13:46:00;;;;;;;;;;;17.40;82.60;;;;;;5086699;28;19940;-91
2023/04/21 13:48:27;;;;;;;;;;;17.40;82.40;;;;;;5085584;28;20451;-90
2023/04/21 13:50:53;;;;;;;;;;;17.40;82.10;;;;;;5085245;28;20155;-91
2023/04/21 13:53:19;;;;;;;;;;;17.40;82.30;;;;;;5088965;28;19919;-89
2023/04/21 13:55:45;;;;;;;;;;;17.50;82.90;;;;;;5089177;28;20016;-90
2023/04/21 13:58:11;;;;;;;;;;;17.50;82.90;;;;;;5084174;28;19916;-90
2023/04/21 14:00:37;;;;;;;;;;;17.50;84.00;;;;;;5085288;28;19943;-91
2023/04/21 14:03:03;;;;;;;;;;;17.50;83.50;;;;;;5087139;28;19908;-90
2023/04/21 14:05:29;;;;;;;;;;;17.50;83.10;;;;;;5088437;28;19916;-90
2023/04/21 14:07:54;;;;;;;;;;;17.50;82.50;;;;;;5087928;28;19912;-89
2023/04/21 14:10:20;;;;;;;;;;;17.50;83.00;;;;;;5087494;28;19908;-90
2023/04/21 14:12:47;;;;;;;;;;;17.50;82.80;;;;;;5086286;28;20357;-91
2023/04/21 14:15:13;;;;;;;;;;;17.60;83.30;;;;;;5085224;28;19908;-90
2023/04/21 14:17:39;;;;;;;;;;;17.60;83.30;;;;;;5088419;28;20201;-90